Time;durP1;ratioP1;P1;durP2;ratioP2;P2;SDS_P1;SDS_P2;PMS_P1;PMS_P2;Temp;Humidity;BMP_temperature;BMP_pressure;BME280_temperature;BME280_humidity;BME280_pressure;Samples;Min_cycle;Max_cycle;Signal;HPM_P1;HPM_P2
2022/01/22 00:02:04;;;;;;;4.77;2.80;;;6.30;99.90;;;;;;5084664;28;20232;-82
2022/01/22 00:04:32;;;;;;;14.77;3.30;;;6.30;99.90;;;;;;5091740;28;20209;-81
2022/01/22 00:07:01;;;;;;;10.17;3.37;;;6.30;99.90;;;;;;5094949;28;20225;-82
2022/01/22 00:09:52;;;;;;;11.63;3.17;;;6.40;99.90;;;;;;5088536;28;20212;-83
2022/01/22 00:12:42;;;;;;;10.83;3.10;;;6.40;99.90;;;;;;5066257;28;20225;-81
2022/01/22 00:15:12;;;;;;;11.80;3.67;;;6.50;99.90;;;;;;5093289;28;20205;-81
2022/01/22 00:17:40;;;;;;;12.33;3.33;;;6.30;99.90;;;;;;5095215;28;20213;-82
2022/01/22 00:20:08;;;;;;;21.07;4.83;;;6.30;99.90;;;;;;5098162;28;20689;-81
2022/01/22 00:22:36;;;;;;;11.03;4.13;;;6.40;99.90;;;;;;5087186;28;20260;-81
2022/01/22 00:25:08;;;;;;;21.17;4.90;;;6.40;99.90;;;;;;5083113;28;20212;-81
2022/01/22 00:27:37;;;;;;;16.43;6.00;;;6.40;99.90;;;;;;5087391;28;20630;-82
2022/01/22 00:30:06;;;;;;;15.60;5.60;;;6.40;99.90;;;;;;5095062;28;20319;-82
2022/01/22 00:32:33;;;;;;;16.73;4.80;;;6.40;99.90;;;;;;5071129;28;20241;-82
2022/01/22 00:35:00;;;;;;;16.93;3.70;;;6.40;99.90;;;;;;5071848;28;20254;-82
2022/01/22 00:37:27;;;;;;;13.53;3.30;;;6.50;99.90;;;;;;5076485;28;20291;-82
2022/01/22 00:39:54;;;;;;;14.03;2.93;;;6.40;99.90;;;;;;5068604;28;20219;-82
2022/01/22 00:42:22;;;;;;;8.67;2.90;;;6.50;99.90;;;;;;5083149;28;20249;-81
2022/01/22 00:44:51;;;;;;;13.03;2.67;;;6.40;99.90;;;;;;5088944;28;20916;-82
2022/01/22 00:47:18;;;;;;;11.80;3.10;;;6.50;99.90;;;;;;5096068;28;20216;-82
2022/01/22 00:49:46;;;;;;;13.27;3.67;;;6.50;99.90;;;;;;5070873;28;20261;-82
2022/01/22 00:52:13;;;;;;;8.10;2.57;;;6.60;99.90;;;;;;5074512;28;20216;-82
2022/01/22 00:54:40;;;;;;;9.13;2.53;;;6.50;99.90;;;;;;5069299;28;20894;-82
2022/01/22 00:57:07;;;;;;;8.43;2.90;;;6.60;99.90;;;;;;5065610;28;20869;-81
2022/01/22 00:59:34;;;;;;;16.60;3.30;;;6.60;99.90;;;;;;5066554;28;20236;-82
2022/01/22 01:02:02;;;;;;;12.70;2.80;;;6.60;99.90;;;;;;5073787;28;20333;-80
2022/01/22 01:04:32;;;;;;;7.90;3.27;;;6.60;99.90;;;;;;5074526;28;20212;-82
2022/01/22 01:06:59;;;;;;;13.03;2.87;;;6.50;99.90;;;;;;5071643;28;20218;-81
2022/01/22 01:09:26;;;;;;;14.63;3.57;;;6.60;99.90;;;;;;5089929;28;20291;-81
2022/01/22 01:11:58;;;;;;;14.20;2.77;;;6.60;99.90;;;;;;5089928;28;20258;-81
2022/01/22 01:14:32;;;;;;;12.50;3.30;;;6.50;99.90;;;;;;5090217;28;20556;-81
2022/01/22 01:33:51;;;;;;;14.43;4.33;;;6.70;99.90;;;;;;5093523;28;20241;-81
2022/01/22 01:36:18;;;;;;;13.97;3.37;;;6.70;99.90;;;;;;5082317;28;20205;-81
2022/01/22 01:38:51;;;;;;;12.23;2.60;;;6.70;99.90;;;;;;5095717;28;20679;-81
2022/01/22 01:41:28;;;;;;;7.10;2.20;;;6.60;99.90;;;;;;5078804;28;20255;-81
2022/01/22 01:43:55;;;;;;;8.40;2.47;;;6.70;99.90;;;;;;5062224;28;20266;-81
2022/01/22 01:46:24;;;;;;;15.70;2.87;;;6.60;99.90;;;;;;5097276;28;20301;-80
2022/01/22 01:48:51;;;;;;;11.57;2.30;;;6.70;99.90;;;;;;5090716;28;20296;-82
2022/01/22 01:51:19;;;;;;;17.13;2.37;;;6.70;99.90;;;;;;5097081;28;20238;-81
2022/01/22 01:54:23;;;;;;;12.73;2.40;;;6.60;99.90;;;;;;5072856;28;20231;-81
2022/01/22 01:59:21;;;;;;;11.13;2.37;;;6.70;99.90;;;;;;5098523;28;20224;-81
2022/01/22 02:01:48;;;;;;;12.23;2.63;;;6.70;99.90;;;;;;5076463;28;20305;-81
2022/01/22 02:04:15;;;;;;;9.40;3.30;;;6.80;99.90;;;;;;5079734;28;20218;-81
2022/01/22 02:06:42;;;;;;;10.40;3.07;;;6.70;99.90;;;;;;5093306;28;20709;-81
2022/01/22 02:09:10;;;;;;;13.20;2.87;;;6.80;99.90;;;;;;5080305;28;20662;-81
2022/01/22 02:11:39;;;;;;;10.17;2.40;;;6.70;99.90;;;;;;5065029;28;20237;-80
2022/01/22 02:23:30;;;;;;;10.43;2.40;;;6.80;99.90;;;;;;5094591;28;20301;-81
2022/01/22 02:25:11;;;;;;;17.70;2.63;;;6.80;99.90;;;;;;5088712;28;20340;-81
2022/01/22 02:27:37;;;;;;;8.73;2.30;;;6.80;99.90;;;;;;5090692;28;20306;-80
2022/01/22 02:30:05;;;;;;;8.53;2.00;;;6.80;99.90;;;;;;5075961;28;20258;-82
2022/01/22 02:35:14;;;;;;;10.23;2.07;;;6.80;99.90;;;;;;5094320;28;20196;-81
2022/01/22 02:37:48;;;;;;;9.47;2.10;;;6.70;99.90;;;;;;5072523;28;20267;-81
2022/01/22 02:40:23;;;;;;;6.90;2.20;;;6.80;99.90;;;;;;5073264;28;20711;-81
2022/01/22 02:42:50;;;;;;;18.83;2.23;;;6.80;99.90;;;;;;5091165;28;20235;-82
2022/01/22 02:45:21;;;;;;;16.33;2.10;;;6.90;99.90;;;;;;5097782;28;20272;-82
2022/01/22 02:47:47;;;;;;;12.90;1.97;;;6.80;99.90;;;;;;5089564;28;20303;-82
2022/01/22 02:50:15;;;;;;;11.83;2.10;;;6.90;99.90;;;;;;5093208;28;20226;-81
2022/01/22 02:52:42;;;;;;;6.37;1.70;;;6.90;99.90;;;;;;5093473;28;20236;-81
2022/01/22 02:55:12;;;;;;;10.97;2.10;;;6.90;99.90;;;;;;5086504;28;20204;-81
2022/01/22 02:57:41;;;;;;;5.77;1.80;;;6.90;99.90;;;;;;5093575;28;20726;-81
2022/01/22 03:00:12;;;;;;;13.43;2.20;;;6.90;99.90;;;;;;5091113;28;20262;-81
2022/01/22 03:02:39;;;;;;;9.30;1.90;;;6.90;99.90;;;;;;5069581;28;20306;-81
2022/01/22 03:05:07;;;;;;;7.80;1.90;;;6.90;99.90;;;;;;5098662;28;20291;-82
2022/01/22 03:07:35;;;;;;;8.07;1.53;;;6.90;99.90;;;;;;5097659;28;20236;-81
2022/01/22 03:10:04;;;;;;;16.17;1.73;;;6.90;99.90;;;;;;5086094;28;20223;-82
2022/01/22 03:18:02;;;;;;;7.37;1.67;;;6.90;99.90;;;;;;5097531;28;20734;-81
2022/01/22 03:28:57;;;;;;;7.70;1.60;;;6.90;99.90;;;;;;5088680;28;20236;-80
2022/01/22 03:31:25;;;;;;;6.43;2.27;;;7.00;99.90;;;;;;5072325;28;20277;-83
2022/01/22 03:33:52;;;;;;;4.93;1.83;;;6.90;99.90;;;;;;5094466;28;20270;-81
2022/01/22 03:36:19;;;;;;;5.53;1.60;;;6.90;99.90;;;;;;5073393;28;20239;-83
2022/01/22 03:38:47;;;;;;;9.50;2.23;;;6.90;99.90;;;;;;5091427;28;20215;-82
2022/01/22 03:41:14;;;;;;;4.93;1.40;;;7.00;99.90;;;;;;5093606;28;20700;-82
2022/01/22 03:43:43;;;;;;;4.93;1.40;;;6.90;99.90;;;;;;5083941;28;20254;-82
2022/01/22 03:46:09;;;;;;;8.20;1.87;;;7.00;99.90;;;;;;5091727;28;20202;-82
2022/01/22 03:48:36;;;;;;;8.30;1.47;;;7.00;99.90;;;;;;5090467;28;20307;-82
2022/01/22 03:51:03;;;;;;;4.13;1.50;;;6.90;99.90;;;;;;5074891;28;20302;-82
2022/01/22 03:53:30;;;;;;;5.00;1.50;;;7.00;99.90;;;;;;5071680;28;20616;-82
2022/01/22 03:56:04;;;;;;;9.17;1.60;;;7.00;99.90;;;;;;5091081;28;20234;-82
2022/01/22 03:58:38;;;;;;;4.10;1.17;;;6.90;99.90;;;;;;5089906;28;20212;-82
2022/01/22 04:03:59;;;;;;;3.50;1.50;;;7.00;99.90;;;;;;5094721;28;20565;-82
2022/01/22 04:07:01;;;;;;;7.73;1.30;;;7.00;99.90;;;;;;5073645;28;20239;-82
2022/01/22 04:09:18;;;;;;;6.20;1.40;;;7.00;99.90;;;;;;5088989;28;20240;-82
2022/01/22 04:11:46;;;;;;;6.33;1.43;;;7.00;99.90;;;;;;5073096;28;20230;-82
2022/01/22 04:14:26;;;;;;;8.00;1.60;;;7.00;99.90;;;;;;5094522;28;20296;-82
2022/01/22 04:17:22;;;;;;;7.63;2.07;;;7.00;99.90;;;;;;5091751;28;20368;-81
2022/01/22 04:25:24;;;;;;;9.50;1.70;;;6.90;99.90;;;;;;5090041;28;20207;-81
2022/01/22 04:27:53;;;;;;;9.90;2.87;;;6.90;99.90;;;;;;5087641;28;20215;-81
2022/01/22 04:30:21;;;;;;;9.13;1.90;;;6.80;99.90;;;;;;5072294;28;20292;-81
2022/01/22 04:32:49;;;;;;;6.90;2.00;;;6.90;99.90;;;;;;5091135;28;20225;-82
2022/01/22 04:35:18;;;;;;;6.40;1.70;;;6.80;99.90;;;;;;5087992;28;20294;-82
2022/01/22 04:37:46;;;;;;;6.37;1.90;;;6.80;99.90;;;;;;5068228;28;20301;-82
2022/01/22 04:40:13;;;;;;;9.90;2.27;;;6.80;99.90;;;;;;5075564;28;20224;-81
2022/01/22 04:42:42;;;;;;;6.57;1.83;;;6.80;99.90;;;;;;5089032;28;20243;-81
2022/01/22 04:47:56;;;;;;;8.47;2.20;;;6.70;99.90;;;;;;5091757;28;20702;-82
2022/01/22 04:55:43;;;;;;;4.07;1.83;;;6.70;99.90;;;;;;5094076;28;20209;-81
2022/01/22 04:58:10;;;;;;;9.80;2.50;;;6.70;99.90;;;;;;5092956;28;20662;-83
2022/01/22 05:00:40;;;;;;;6.27;2.17;;;6.70;99.90;;;;;;5094497;28;20224;-81
2022/01/22 05:03:07;;;;;;;5.63;1.67;;;6.70;99.90;;;;;;5081825;28;20605;-81
2022/01/22 05:05:34;;;;;;;6.57;2.10;;;6.70;99.90;;;;;;5097086;28;20213;-81
2022/01/22 05:08:01;;;;;;;3.73;1.67;;;6.70;99.90;;;;;;5095473;28;20290;-82
2022/01/22 05:10:28;;;;;;;7.50;2.10;;;6.80;99.90;;;;;;5095052;28;20222;-81
2022/01/22 05:12:54;;;;;;;8.47;1.87;;;6.80;99.90;;;;;;5093502;28;20212;-83
2022/01/22 05:15:22;;;;;;;7.07;1.90;;;6.80;99.90;;;;;;5075469;28;20201;-82
2022/01/22 05:17:49;;;;;;;10.13;2.13;;;6.70;99.90;;;;;;5083875;28;20222;-82
2022/01/22 05:20:30;;;;;;;6.70;2.30;;;6.70;99.90;;;;;;5081786;28;20729;-82
2022/01/22 05:25:58;;;;;;;8.80;2.07;;;6.70;99.90;;;;;;5079778;28;20308;-82
2022/01/22 05:39:21;;;;;;;8.87;1.90;;;6.60;99.90;;;;;;5090069;28;20236;-81
2022/01/22 05:41:48;;;;;;;11.67;1.90;;;6.60;99.90;;;;;;5074016;28;20260;-82
2022/01/22 05:44:15;;;;;;;14.40;2.50;;;6.50;99.90;;;;;;5084501;28;20235;-83
2022/01/22 05:46:41;;;;;;;5.07;1.87;;;6.60;99.90;;;;;;5073468;28;20264;-82
2022/01/22 05:49:12;;;;;;;8.00;1.70;;;6.40;99.90;;;;;;5093094;28;20548;-82
2022/01/22 05:51:41;;;;;;;4.13;1.67;;;6.40;99.90;;;;;;5078464;28;20208;-82
2022/01/22 05:59:37;;;;;;;6.30;2.27;;;6.40;99.90;;;;;;5093931;28;20234;-82
2022/01/22 06:02:08;;;;;;;8.80;2.37;;;6.40;99.90;;;;;;5078616;28;20423;-81
2022/01/22 06:04:36;;;;;;;6.20;2.03;;;6.40;99.90;;;;;;5078071;28;20196;-82
2022/01/22 06:07:04;;;;;;;6.43;2.27;;;6.40;99.90;;;;;;5102369;28;20267;-82
2022/01/22 06:09:33;;;;;;;9.13;2.33;;;6.40;99.90;;;;;;5080567;28;20384;-82
2022/01/22 06:14:34;;;;;;;4.67;2.13;;;6.50;99.90;;;;;;5083926;28;20299;-82
2022/01/22 06:17:02;;;;;;;7.87;2.53;;;6.50;99.90;;;;;;5085253;28;20208;-82
2022/01/22 06:19:29;;;;;;;8.33;3.00;;;6.60;99.90;;;;;;5078296;28;20206;-82
2022/01/22 06:21:56;;;;;;;5.27;2.47;;;6.60;99.90;;;;;;5088707;28;20225;-82
2022/01/22 06:24:24;;;;;;;9.73;2.50;;;6.60;99.90;;;;;;5091544;28;20200;-82
2022/01/22 06:26:51;;;;;;;5.93;2.50;;;6.70;99.90;;;;;;5075804;28;20670;-82
2022/01/22 06:29:19;;;;;;;8.53;2.97;;;6.60;99.90;;;;;;5091397;28;20236;-82
2022/01/22 06:31:45;;;;;;;8.93;2.63;;;6.70;99.90;;;;;;5083315;28;20284;-82
2022/01/22 06:34:12;;;;;;;8.23;2.93;;;6.70;99.90;;;;;;5101335;28;20205;-82
2022/01/22 06:36:39;;;;;;;9.60;2.93;;;6.70;99.90;;;;;;5087907;28;20197;-81
2022/01/22 06:39:14;;;;;;;13.40;3.20;;;6.70;99.90;;;;;;5104274;27;20284;-75
2022/01/22 06:41:44;;;;;;;6.17;2.90;;;6.70;99.90;;;;;;5092829;28;20311;-79
2022/01/22 06:44:16;;;;;;;9.27;2.97;;;6.80;99.90;;;;;;5106163;27;20288;-80
2022/01/22 06:46:45;;;;;;;8.63;3.23;;;6.80;99.90;;;;;;5088051;28;20254;-80
2022/01/22 06:49:13;;;;;;;6.47;2.50;;;6.80;99.90;;;;;;5106620;27;20258;-81
2022/01/22 06:51:43;;;;;;;7.57;2.70;;;6.80;99.90;;;;;;5094926;28;20661;-80
2022/01/22 06:54:11;;;;;;;6.27;2.70;;;6.70;99.90;;;;;;5108025;27;20192;-80
2022/01/22 06:56:41;;;;;;;6.27;2.37;;;6.80;99.90;;;;;;5099581;27;20232;-80
2022/01/22 06:59:10;;;;;;;5.70;2.67;;;6.80;99.90;;;;;;5116133;27;20207;-80
2022/01/22 07:01:37;;;;;;;6.03;2.70;;;6.80;99.90;;;;;;5093867;28;20266;-81
2022/01/22 07:04:05;;;;;;;6.80;2.80;;;6.80;99.90;;;;;;5093221;28;20208;-81
2022/01/22 07:06:31;;;;;;;3.90;2.67;;;6.80;99.90;;;;;;5094697;28;20218;-81
2022/01/22 07:08:58;;;;;;;6.30;2.60;;;6.80;99.90;;;;;;5092090;27;20287;-82
2022/01/22 07:11:25;;;;;;;5.97;3.03;;;6.90;99.90;;;;;;5108331;27;20536;-81
2022/01/22 07:13:52;;;;;;;5.70;2.70;;;6.80;99.90;;;;;;5103716;27;20216;-80
2022/01/22 07:16:19;;;;;;;5.27;2.70;;;6.80;99.90;;;;;;5115415;27;20596;-80
2022/01/22 07:18:46;;;;;;;6.57;2.97;;;6.80;99.90;;;;;;5095163;27;20238;-81
2022/01/22 07:21:20;;;;;;;6.73;3.00;;;6.80;99.90;;;;;;5109461;28;20503;-82
2022/01/22 07:26:15;;;;;;;10.23;2.93;;;6.80;99.90;;;;;;5113470;27;20212;-82
2022/01/22 07:28:42;;;;;;;7.37;2.77;;;6.80;99.90;;;;;;5108274;27;20201;-82
2022/01/22 07:31:10;;;;;;;3.60;2.40;;;6.80;99.90;;;;;;5098700;27;20210;-82
2022/01/22 07:33:37;;;;;;;10.17;2.93;;;6.80;99.90;;;;;;5108908;27;20713;-82
2022/01/22 07:36:05;;;;;;;7.93;2.80;;;6.80;99.90;;;;;;5111798;27;20223;-81
2022/01/22 07:38:37;;;;;;;6.13;2.53;;;6.80;99.90;;;;;;5089665;28;20589;-82
2022/01/22 07:41:08;;;;;;;3.47;2.40;;;6.80;99.90;;;;;;5097926;27;20272;-81
2022/01/22 07:43:39;;;;;;;10.07;2.67;;;6.90;99.90;;;;;;5083571;28;20237;-82
2022/01/22 07:46:08;;;;;;;6.77;2.70;;;6.80;99.90;;;;;;5069052;28;20608;-82
2022/01/22 07:48:35;;;;;;;10.33;2.70;;;6.90;99.90;;;;;;5093102;28;20212;-82
2022/01/22 07:51:02;;;;;;;6.77;2.83;;;6.90;99.90;;;;;;5096792;28;20197;-80
2022/01/22 07:53:30;;;;;;;4.20;2.67;;;6.90;99.90;;;;;;5084069;28;20217;-81
2022/01/22 07:55:57;;;;;;;6.77;2.60;;;6.90;99.90;;;;;;5084753;28;20233;-82
2022/01/22 07:58:23;;;;;;;7.43;2.73;;;6.90;99.90;;;;;;5095101;28;20217;-82
2022/01/22 08:00:56;;;;;;;5.67;2.70;;;6.90;99.90;;;;;;5088382;28;20294;-83
2022/01/22 08:03:27;;;;;;;11.37;3.30;;;6.90;99.90;;;;;;5087520;28;20209;-84
2022/01/22 08:05:56;;;;;;;4.10;2.60;;;7.00;99.90;;;;;;5079728;28;20288;-83
2022/01/22 08:08:24;;;;;;;3.80;2.57;;;7.00;99.90;;;;;;5089129;28;20199;-82
2022/01/22 08:10:53;;;;;;;8.43;2.70;;;7.00;99.90;;;;;;5079459;28;20583;-83
2022/01/22 08:13:21;;;;;;;8.03;2.97;;;7.10;99.90;;;;;;5072019;28;20205;-83
2022/01/22 08:15:59;;;;;;;9.20;3.60;;;7.00;99.90;;;;;;5067409;28;20218;-82
2022/01/22 08:18:29;;;;;;;10.40;3.10;;;7.10;99.90;;;;;;5084856;28;20566;-83
2022/01/22 08:21:02;;;;;;;12.27;3.17;;;7.00;99.90;;;;;;5070250;28;20228;-83
2022/01/22 08:23:32;;;;;;;6.70;3.07;;;7.10;99.90;;;;;;5072084;28;20236;-83
2022/01/22 08:26:03;;;;;;;11.03;3.37;;;7.10;99.90;;;;;;5072044;28;20221;-84
2022/01/22 08:31:37;;;;;;;11.40;3.47;;;7.10;99.90;;;;;;5098302;28;20662;-83
2022/01/22 08:36:52;;;;;;;12.30;3.73;;;7.10;99.90;;;;;;5088660;28;20211;-83
2022/01/22 08:39:21;;;;;;;11.20;3.40;;;7.10;99.90;;;;;;5078869;28;20205;-84
2022/01/22 08:41:56;;;;;;;9.63;3.30;;;7.10;99.90;;;;;;5074417;28;20323;-84
2022/01/22 08:44:23;;;;;;;15.03;3.67;;;7.10;99.90;;;;;;5089512;28;20256;-83
2022/01/22 08:46:58;;;;;;;10.37;3.60;;;7.20;99.90;;;;;;5101740;28;20221;-83
2022/01/22 08:49:30;;;;;;;9.70;3.77;;;7.30;99.90;;;;;;5087722;28;20213;-83
2022/01/22 08:52:11;;;;;;;8.37;3.33;;;7.30;99.90;;;;;;5082586;28;20208;-83
2022/01/22 08:54:40;;;;;;;9.70;3.00;;;7.20;99.90;;;;;;5079642;28;20237;-85
2022/01/22 08:57:11;;;;;;;8.00;3.83;;;7.30;99.90;;;;;;5080010;28;20252;-84
2022/01/22 08:59:42;;;;;;;12.87;3.60;;;7.30;99.90;;;;;;5074097;28;20570;-84
2022/01/22 09:02:09;;;;;;;16.17;3.27;;;7.30;99.90;;;;;;5079025;28;20234;-82
2022/01/22 09:04:39;;;;;;;16.67;3.43;;;7.30;99.90;;;;;;5095486;28;20207;-82
2022/01/22 09:07:09;;;;;;;8.80;3.57;;;7.30;99.90;;;;;;5075992;28;20215;-85
2022/01/22 09:09:37;;;;;;;7.90;3.20;;;7.20;99.90;;;;;;5088396;28;20254;-86
2022/01/22 09:12:06;;;;;;;9.23;3.23;;;7.30;99.90;;;;;;5078432;28;20710;-81
2022/01/22 09:14:33;;;;;;;10.53;3.23;;;7.30;99.90;;;;;;5077341;28;20210;-82
2022/01/22 09:17:00;;;;;;;13.77;3.50;;;7.40;99.90;;;;;;5074953;28;20216;-83
2022/01/22 09:19:35;;;;;;;13.40;3.70;;;7.30;99.90;;;;;;5069576;28;20206;-83
2022/01/22 09:22:20;;;;;;;9.23;3.57;;;7.40;99.90;;;;;;5072798;28;20590;-84
2022/01/22 09:24:49;;;;;;;14.63;3.47;;;7.30;99.90;;;;;;5067944;28;20211;-84
2022/01/22 09:27:17;;;;;;;17.63;3.87;;;7.40;99.90;;;;;;5090839;28;20227;-83
2022/01/22 09:29:47;;;;;;;6.43;4.00;;;7.40;99.90;;;;;;5090194;28;20718;-82
2022/01/22 09:32:14;;;;;;;10.07;2.60;;;7.40;99.90;;;;;;5067250;28;20721;-83
2022/01/22 09:34:46;;;;;;;10.97;3.40;;;7.40;99.90;;;;;;5061991;28;20305;-82
2022/01/22 09:37:13;;;;;;;6.23;3.03;;;7.40;99.90;;;;;;5089989;28;20312;-84
2022/01/22 09:39:40;;;;;;;4.60;2.63;;;7.40;99.90;;;;;;5092695;28;20226;-83
2022/01/22 09:42:07;;;;;;;10.57;3.27;;;7.40;99.90;;;;;;5090384;28;20235;-83
2022/01/22 09:44:38;;;;;;;12.80;3.20;;;7.40;99.90;;;;;;5073193;28;20255;-83
2022/01/22 09:47:12;;;;;;;11.27;3.30;;;7.40;99.90;;;;;;5093907;28;20665;-83
2022/01/22 09:49:42;;;;;;;9.20;3.27;;;7.40;99.90;;;;;;5084471;28;20677;-82
2022/01/22 09:52:13;;;;;;;11.00;3.03;;;7.40;99.90;;;;;;5074541;28;20211;-82
2022/01/22 09:54:40;;;;;;;13.93;3.73;;;7.50;99.90;;;;;;5098175;28;20206;-83
2022/01/22 09:57:09;;;;;;;7.87;3.07;;;7.40;99.90;;;;;;5075193;28;20223;-84
2022/01/22 09:59:37;;;;;;;6.97;3.13;;;7.50;99.90;;;;;;5073697;28;20217;-83
2022/01/22 10:02:11;;;;;;;15.30;3.37;;;7.40;99.90;;;;;;5076349;28;20243;-83
2022/01/22 10:04:45;;;;;;;12.90;2.90;;;7.50;99.90;;;;;;5083086;28;20191;-84
2022/01/22 10:07:17;;;;;;;11.40;3.23;;;7.60;99.90;;;;;;5076627;28;20296;-83
2022/01/22 10:10:04;;;;;;;8.67;3.10;;;7.60;99.90;;;;;;5068231;28;20213;-81
2022/01/22 10:12:44;;;;;;;9.00;3.37;;;7.50;99.90;;;;;;5073727;28;20210;-83
2022/01/22 10:15:22;;;;;;;9.80;3.20;;;7.70;99.90;;;;;;5096713;28;20585;-85
2022/01/22 10:17:52;;;;;;;12.17;3.53;;;7.60;99.90;;;;;;5080887;28;20288;-83
2022/01/22 10:20:32;;;;;;;9.67;4.37;;;7.60;99.90;;;;;;5090367;28;20196;-83
2022/01/22 10:23:10;;;;;;;12.00;3.67;;;7.60;99.90;;;;;;5088450;28;20234;-84
2022/01/22 10:25:43;;;;;;;15.50;4.27;;;7.60;99.90;;;;;;5075629;28;20640;-83
2022/01/22 10:28:23;;;;;;;16.10;4.77;;;7.70;99.90;;;;;;5077797;28;20230;-83
2022/01/22 10:30:56;;;;;;;11.03;3.80;;;7.60;99.90;;;;;;5075463;28;20214;-83
2022/01/22 10:33:28;;;;;;;11.10;4.10;;;7.70;99.90;;;;;;5080706;28;20326;-83
2022/01/22 10:36:19;;;;;;;11.17;5.33;;;7.70;99.90;;;;;;5075796;28;20214;-83
2022/01/22 10:38:55;;;;;;;12.57;4.80;;;7.70;99.90;;;;;;5072213;28;20210;-82
2022/01/22 10:41:39;;;;;;;9.00;4.07;;;7.70;99.90;;;;;;5069458;28;20211;-81
2022/01/22 10:44:09;;;;;;;11.07;3.87;;;7.70;99.90;;;;;;5080564;28;20237;-84
2022/01/22 10:46:51;;;;;;;10.53;4.43;;;7.70;99.90;;;;;;5070568;28;20211;-83
2022/01/22 10:49:23;;;;;;;16.80;4.73;;;7.70;99.90;;;;;;5072787;28;20200;-84
2022/01/22 10:51:56;;;;;;;10.63;4.60;;;7.70;99.90;;;;;;5071913;28;20195;-83
2022/01/22 10:54:26;;;;;;;14.00;5.00;;;7.70;99.90;;;;;;5075516;28;20608;-82
2022/01/22 10:56:54;;;;;;;12.63;5.70;;;7.70;99.90;;;;;;5088984;28;20291;-83
2022/01/22 10:59:24;;;;;;;18.17;8.77;;;7.80;99.90;;;;;;5089314;28;20212;-82
2022/01/22 11:01:56;;;;;;;17.17;7.00;;;7.80;99.90;;;;;;5093745;28;20223;-83
2022/01/22 11:04:39;;;;;;;14.93;5.83;;;7.80;99.90;;;;;;5069101;28;20609;-83
2022/01/22 11:07:15;;;;;;;13.63;5.67;;;7.80;99.90;;;;;;5072381;28;20220;-83
2022/01/22 11:10:00;;;;;;;7.70;4.67;;;7.80;99.90;;;;;;5077327;28;20207;-82
2022/01/22 11:12:28;;;;;;;8.77;4.90;;;7.80;99.90;;;;;;5073279;28;20456;-83
2022/01/22 11:14:54;;;;;;;9.33;4.80;;;7.80;99.90;;;;;;5092769;28;20272;-83
2022/01/22 11:17:31;;;;;;;8.93;4.20;;;7.80;99.90;;;;;;5065748;28;20659;-83
2022/01/22 11:20:00;;;;;;;10.97;4.07;;;7.80;99.90;;;;;;5072759;28;20316;-82
2022/01/22 11:22:30;;;;;;;12.67;4.20;;;7.90;99.90;;;;;;5069177;28;20304;-84
2022/01/22 11:24:59;;;;;;;12.47;4.13;;;7.90;99.90;;;;;;5089538;28;20264;-84
2022/01/22 11:27:26;;;;;;;6.57;3.30;;;7.90;99.90;;;;;;5088290;28;20204;-82
2022/01/22 11:30:07;;;;;;;8.47;3.80;;;7.90;99.90;;;;;;5075807;28;20215;-84
2022/01/22 11:32:40;;;;;;;7.50;3.33;;;7.90;99.90;;;;;;5072196;28;20216;-83
2022/01/22 11:35:12;;;;;;;10.73;3.90;;;8.00;99.90;;;;;;5088166;28;20197;-82
2022/01/22 11:37:57;;;;;;;8.73;3.00;;;8.00;99.90;;;;;;5075060;28;20210;-84
2022/01/22 11:40:32;;;;;;;9.83;3.23;;;8.10;99.90;;;;;;5086628;28;20195;-82
2022/01/22 11:43:08;;;;;;;11.07;3.30;;;8.10;99.90;;;;;;5068518;28;20255;-84
2022/01/22 11:45:46;;;;;;;6.17;3.40;;;8.10;99.90;;;;;;5094832;28;20256;-82
2022/01/22 11:48:16;;;;;;;7.17;3.33;;;8.10;99.90;;;;;;5076003;28;20622;-83
2022/01/22 11:50:46;;;;;;;12.13;4.33;;;8.20;99.90;;;;;;5083296;28;20690;-83
2022/01/22 11:53:32;;;;;;;10.50;5.10;;;8.10;99.90;;;;;;5070329;28;20263;-84
2022/01/22 11:56:11;;;;;;;12.33;4.70;;;8.20;99.90;;;;;;5089389;28;20200;-83
2022/01/22 11:58:56;;;;;;;7.00;3.20;;;8.20;99.90;;;;;;5078321;28;20271;-83
2022/01/22 12:01:43;;;;;;;9.47;3.53;;;8.10;99.90;;;;;;5087937;28;20312;-82
2022/01/22 12:04:14;;;;;;;8.83;2.87;;;8.10;99.90;;;;;;5094143;28;20877;-82
2022/01/22 12:07:05;;;;;;;10.07;3.33;;;8.20;99.90;;;;;;5090334;28;20210;-83
2022/01/22 12:10:20;;;;;;;4.20;2.67;;;8.20;99.90;;;;;;5083291;28;20241;-82
2022/01/22 12:15:47;;;;;;;6.20;2.73;;;8.20;99.90;;;;;;5093351;28;20220;-82
2022/01/22 12:18:17;;;;;;;6.10;2.87;;;8.30;99.90;;;;;;5091797;28;20267;-84
2022/01/22 12:23:29;;;;;;;7.63;3.03;;;8.40;99.90;;;;;;5089068;28;20323;-82
2022/01/22 12:25:56;;;;;;;7.33;2.90;;;8.30;99.90;;;;;;5091640;28;20248;-83
2022/01/22 12:28:39;;;;;;;5.93;2.80;;;8.40;99.90;;;;;;5063432;28;20748;-83
2022/01/22 12:31:14;;;;;;;8.10;2.80;;;8.40;99.90;;;;;;5094879;28;20550;-82
2022/01/22 12:33:52;;;;;;;10.03;3.17;;;8.40;99.90;;;;;;5079449;28;20897;-83
2022/01/22 12:36:27;;;;;;;12.23;3.50;;;8.40;99.90;;;;;;5089610;28;20276;-82
2022/01/22 12:39:09;;;;;;;5.57;3.20;;;8.40;99.90;;;;;;5095522;28;20288;-83
2022/01/22 12:44:08;;;;;;;9.27;4.00;;;8.40;99.90;;;;;;5100308;28;20676;-82
2022/01/22 12:46:57;;;;;;;6.03;3.37;;;8.40;99.90;;;;;;5074324;28;20230;-84
2022/01/22 12:49:25;;;;;;;9.80;3.43;;;8.40;99.90;;;;;;5090563;28;20623;-82
2022/01/22 12:52:00;;;;;;;5.40;3.33;;;8.40;99.90;;;;;;5065198;28;20193;-82
2022/01/22 12:54:28;;;;;;;4.47;3.10;;;8.40;99.90;;;;;;5068920;28;20204;-84
2022/01/22 12:57:09;;;;;;;11.83;5.63;;;8.40;99.90;;;;;;5072025;28;20579;-82
2022/01/22 13:00:07;;;;;;;6.67;4.10;;;8.50;99.90;;;;;;5066933;28;20611;-83
2022/01/22 13:02:50;;;;;;;8.50;3.60;;;8.40;99.90;;;;;;5064810;28;20225;-82
2022/01/22 13:05:20;;;;;;;8.53;3.43;;;8.40;99.90;;;;;;5081327;28;20815;-83
2022/01/22 13:08:01;;;;;;;8.73;3.63;;;8.50;99.90;;;;;;5070328;28;20262;-84
2022/01/22 13:10:33;;;;;;;8.53;3.67;;;8.40;99.90;;;;;;5090614;28;20209;-82
2022/01/22 13:13:02;;;;;;;9.90;5.83;;;8.40;99.90;;;;;;5096104;28;20611;-83
2022/01/22 13:15:30;;;;;;;10.20;5.13;;;8.40;99.90;;;;;;5078791;28;20202;-82
2022/01/22 13:17:59;;;;;;;8.40;3.90;;;8.40;99.90;;;;;;5091086;28;20222;-84
2022/01/22 13:20:36;;;;;;;6.63;3.43;;;8.40;99.90;;;;;;5091407;28;20305;-83
2022/01/22 13:23:19;;;;;;;8.47;3.27;;;8.30;99.90;;;;;;5090343;28;20707;-83
2022/01/22 13:25:46;;;;;;;8.10;3.00;;;8.30;99.90;;;;;;5072726;28;20209;-82
2022/01/22 13:28:16;;;;;;;6.90;3.07;;;8.40;99.90;;;;;;5091865;28;20310;-83
2022/01/22 13:30:56;;;;;;;5.37;2.83;;;8.30;99.90;;;;;;5090963;28;20215;-81
2022/01/22 13:33:33;;;;;;;6.33;3.37;;;8.40;99.90;;;;;;5075658;28;20268;-83
2022/01/22 13:36:18;;;;;;;7.27;3.27;;;8.40;99.90;;;;;;5101046;28;20204;-83
2022/01/22 13:49:50;;;;;;;7.07;2.80;;;8.40;99.90;;;;;;5089121;28;20209;-84
2022/01/22 13:52:19;;;;;;;8.87;3.53;;;8.40;99.90;;;;;;5078955;28;20237;-82
2022/01/22 13:54:51;;;;;;;6.33;2.73;;;8.50;99.90;;;;;;5074746;28;20209;-84
2022/01/22 13:57:24;;;;;;;5.23;2.77;;;8.50;99.90;;;;;;5078532;28;20227;-83
2022/01/22 13:59:53;;;;;;;6.50;3.03;;;8.50;99.90;;;;;;5074180;28;20266;-82
2022/01/22 14:05:02;;;;;;;6.87;3.07;;;8.50;99.90;;;;;;5091539;28;20278;-82
2022/01/22 14:07:41;;;;;;;6.30;3.07;;;8.50;99.90;;;;;;5075422;28;20208;-82
2022/01/22 14:10:15;;;;;;;6.00;3.47;;;8.40;99.90;;;;;;5087015;28;20248;-83
2022/01/22 14:12:45;;;;;;;19.00;3.80;;;8.50;99.90;;;;;;5074003;28;20669;-82
2022/01/22 14:15:42;;;;;;;7.70;3.27;;;8.50;99.90;;;;;;5073264;28;20224;-82
2022/01/22 14:18:23;;;;;;;8.00;4.10;;;8.50;99.90;;;;;;5072864;28;20282;-82
2022/01/22 14:21:07;;;;;;;7.00;2.40;;;8.40;99.90;;;;;;5077949;28;20211;-82
2022/01/22 14:23:43;;;;;;;3.60;2.50;;;8.40;99.90;;;;;;5076999;28;20336;-83
2022/01/22 14:26:16;;;;;;;7.53;2.67;;;8.30;99.90;;;;;;5093917;28;20209;-81
2022/01/22 14:28:46;;;;;;;9.83;2.57;;;8.30;99.90;;;;;;5093367;28;20286;-82
2022/01/22 14:31:32;;;;;;;6.80;2.70;;;8.30;99.90;;;;;;5090304;28;20196;-82
2022/01/22 14:34:05;;;;;;;6.03;2.53;;;8.30;99.90;;;;;;5075096;28;20549;-82
2022/01/22 14:36:37;;;;;;;6.43;2.90;;;8.30;99.90;;;;;;5092656;28;20203;-83
2022/01/22 14:39:30;;;;;;;5.07;2.77;;;8.30;99.90;;;;;;5090946;28;20201;-85
2022/01/22 14:45:09;;;;;;;5.87;2.90;;;8.20;99.90;;;;;;5083773;28;20201;-82
2022/01/22 14:47:50;;;;;;;5.67;2.80;;;8.20;99.90;;;;;;5073825;28;20226;-82
2022/01/22 14:50:21;;;;;;;6.47;2.90;;;8.00;99.90;;;;;;5088174;28;20295;-82
2022/01/22 14:52:56;;;;;;;7.33;3.07;;;8.10;99.90;;;;;;5069199;28;20229;-82
2022/01/22 14:55:26;;;;;;;9.43;3.07;;;8.10;99.90;;;;;;5070002;28;20281;-83
2022/01/22 14:57:53;;;;;;;8.13;3.13;;;8.10;99.90;;;;;;5086439;28;20673;-82
2022/01/22 15:00:21;;;;;;;5.20;2.87;;;8.10;99.90;;;;;;5067355;28;20211;-82
2022/01/22 15:02:48;;;;;;;13.50;5.67;;;8.10;99.90;;;;;;5072364;28;20642;-82
2022/01/22 15:05:16;;;;;;;5.50;3.20;;;8.10;99.90;;;;;;5069010;28;20199;-82
2022/01/22 15:07:44;;;;;;;6.37;3.67;;;8.10;99.90;;;;;;5077357;28;20216;-83
2022/01/22 15:10:20;;;;;;;9.73;3.83;;;8.10;99.90;;;;;;5068376;28;20659;-83
2022/01/22 15:12:47;;;;;;;6.97;4.87;;;8.10;99.90;;;;;;5089052;28;20207;-82